createdAt,value
2019-01-18T00:01:30.663Z,70.37
2019-01-18T00:04:00.111Z,64.07
2019-01-18T00:06:29.592Z,64.67
2019-01-18T00:08:59.109Z,65.33
2019-01-18T00:11:28.555Z,61.27
2019-01-18T00:13:57.975Z,54.53
2019-01-18T00:16:27.453Z,56.40
2019-01-18T00:18:56.819Z,52.90
2019-01-18T00:21:26.160Z,53.07
2019-01-18T00:23:55.560Z,52.03
2019-01-18T00:26:24.910Z,49.03
2019-01-18T00:28:54.282Z,54.83
2019-01-18T00:31:23.754Z,50.63
2019-01-18T00:33:53.110Z,53.60
2019-01-18T00:36:22.478Z,54.17
2019-01-18T00:38:51.850Z,57.90
2019-01-18T00:41:21.209Z,53.60
2019-01-18T00:43:50.565Z,59.77
2019-01-18T00:46:20.037Z,57.17
2019-01-18T00:48:49.444Z,61.33
2019-01-18T00:51:18.796Z,65.10
2019-01-18T00:53:49.421Z,58.70
2019-01-18T00:56:18.766Z,62.73
2019-01-18T00:58:48.119Z,69.13
2019-01-18T01:01:17.537Z,61.57
2019-01-18T01:03:46.906Z,63.47
2019-01-18T01:06:16.290Z,59.40
2019-01-18T01:08:46.480Z,64.20
2019-01-18T01:11:15.877Z,57.23
2019-01-18T01:13:45.403Z,58.63
2019-01-18T01:16:14.909Z,62.47
2019-01-18T01:18:44.287Z,58.73
2019-01-18T01:21:13.741Z,61.63
2019-01-18T01:23:43.166Z,62.53
2019-01-18T01:26:12.587Z,60.33
2019-01-18T01:28:41.947Z,55.67
2019-01-18T01:31:11.462Z,58.00
2019-01-18T01:33:40.897Z,54.33
2019-01-18T01:36:10.303Z,52.17
2019-01-18T01:38:39.819Z,53.90
2019-01-18T01:41:09.197Z,53.37
2019-01-18T01:43:38.535Z,50.37
2019-01-18T01:46:08.035Z,50.90
2019-01-18T01:48:37.489Z,48.43
2019-01-18T01:51:06.890Z,48.43
2019-01-18T01:53:36.340Z,48.77
2019-01-18T01:56:05.782Z,50.20
2019-01-18T01:58:35.160Z,49.00
2019-01-18T02:01:04.586Z,48.60
2019-01-18T02:03:33.904Z,53.40
2019-01-18T02:06:03.338Z,48.37
2019-01-18T02:08:32.736Z,52.67
2019-01-18T02:11:02.079Z,52.47
2019-01-18T02:13:31.438Z,50.17
2019-01-18T02:16:00.819Z,51.57
2019-01-18T02:18:30.150Z,51.00
2019-01-18T02:20:59.517Z,51.03
2019-01-18T02:23:28.908Z,51.83
2019-01-18T02:25:58.265Z,49.23
2019-01-18T02:28:27.618Z,53.07
2019-01-18T02:30:57.009Z,48.63
2019-01-18T02:33:26.470Z,50.33
2019-01-18T02:35:55.814Z,49.37
2019-01-18T02:38:25.501Z,50.30
2019-01-18T02:40:54.958Z,51.83
2019-01-18T02:43:24.653Z,47.83
2019-01-18T02:45:54.141Z,49.37
2019-01-18T02:48:23.576Z,47.03
2019-01-18T02:50:52.925Z,46.60
2019-01-18T02:53:22.316Z,45.40
2019-01-18T02:55:52.734Z,46.63
2019-01-18T02:58:22.154Z,49.10
2019-01-18T03:00:51.577Z,45.43
2019-01-18T03:03:20.933Z,46.33
2019-01-18T03:05:50.340Z,44.47
2019-01-18T03:08:19.728Z,44.00
2019-01-18T03:10:49.087Z,43.57
2019-01-18T03:13:18.520Z,45.40
2019-01-18T03:15:47.904Z,44.77
2019-01-18T03:18:17.230Z,42.17
2019-01-18T03:20:46.653Z,41.90
2019-01-18T03:23:16.079Z,41.53
2019-01-18T03:25:45.446Z,44.53
2019-01-18T03:28:14.862Z,41.67
2019-01-18T03:30:44.278Z,41.33
2019-01-18T03:33:13.757Z,37.97
2019-01-18T03:35:43.247Z,38.43
2019-01-18T03:38:12.737Z,34.93
2019-01-18T03:40:42.197Z,29.50
2019-01-18T03:43:11.644Z,29.73
2019-01-18T03:45:41.151Z,31.87
2019-01-18T03:48:10.559Z,29.50
2019-01-18T03:50:40.012Z,31.93
2019-01-18T03:53:09.484Z,30.57
2019-01-18T03:55:38.858Z,31.30
2019-01-18T03:58:09.335Z,29.40
2019-01-18T04:00:38.757Z,32.37
2019-01-18T04:03:08.302Z,31.30
2019-01-18T04:05:37.797Z,33.37
2019-01-18T04:08:07.221Z,32.97
2019-01-18T04:10:36.618Z,34.37
2019-01-18T04:13:05.989Z,35.17
2019-01-18T04:15:35.399Z,37.40
2019-01-18T04:18:04.834Z,34.57
2019-01-18T04:20:34.249Z,33.67
2019-01-18T04:23:03.651Z,33.27
2019-01-18T04:25:33.314Z,35.23
2019-01-18T04:28:02.954Z,34.70
2019-01-18T04:30:33.520Z,35.67
2019-01-18T04:33:03.377Z,34.70
2019-01-18T04:35:32.761Z,33.50
2019-01-18T04:38:02.269Z,34.17
2019-01-18T04:40:31.613Z,33.33
2019-01-18T04:43:00.965Z,39.03
2019-01-18T04:45:30.371Z,38.37
2019-01-18T04:47:59.744Z,36.07
2019-01-18T04:50:29.536Z,36.03
2019-01-18T04:52:58.979Z,30.60
2019-01-18T04:55:28.312Z,29.50
2019-01-18T04:57:57.691Z,28.10
2019-01-18T05:00:29.966Z,25.30
2019-01-18T05:02:59.418Z,22.10
2019-01-18T05:05:28.786Z,22.13
2019-01-18T05:07:58.219Z,23.23
2019-01-18T05:10:29.121Z,21.77
2019-01-18T05:12:59.221Z,23.20
2019-01-18T05:15:30.620Z,21.60
2019-01-18T05:18:00.056Z,23.20
2019-01-18T05:20:29.410Z,23.53
2019-01-18T05:22:58.793Z,24.70
2019-01-18T05:25:28.161Z,25.47
2019-01-18T05:27:57.510Z,23.57
2019-01-18T05:30:29.065Z,21.50
2019-01-18T05:32:58.493Z,22.30
2019-01-18T05:35:27.958Z,18.47
2019-01-18T05:37:57.423Z,19.00
2019-01-18T05:40:26.867Z,18.17
2019-01-18T05:42:56.249Z,16.27
2019-01-18T05:45:25.634Z,16.47
2019-01-18T05:47:55.001Z,16.27
2019-01-18T05:50:27.123Z,15.67
2019-01-18T05:52:56.669Z,16.50
2019-01-18T05:55:26.037Z,16.23
2019-01-18T05:57:55.433Z,16.00
2019-01-18T06:00:38.461Z,13.80
2019-01-18T06:03:07.886Z,13.97
2019-01-18T06:05:40.417Z,14.10
2019-01-18T06:08:09.930Z,13.13
2019-01-18T06:10:39.329Z,13.77
2019-01-18T06:13:08.824Z,13.63
2019-01-18T06:15:38.252Z,12.97
2019-01-18T06:18:07.738Z,13.23
2019-01-18T06:20:37.218Z,13.33
2019-01-18T06:23:06.653Z,12.80
2019-01-18T06:25:36.051Z,12.20
2019-01-18T06:28:05.669Z,12.00
2019-01-18T06:30:35.055Z,11.53
2019-01-18T06:33:04.493Z,11.50
2019-01-18T06:35:33.927Z,11.17
2019-01-18T06:38:03.266Z,12.50
2019-01-18T06:40:32.589Z,12.03
2019-01-18T06:43:02.000Z,12.17
2019-01-18T06:45:31.891Z,12.87
2019-01-18T06:48:01.315Z,13.03
2019-01-18T06:50:30.774Z,13.67
2019-01-18T06:53:00.123Z,13.23
2019-01-18T06:55:29.572Z,13.27
2019-01-18T06:57:58.983Z,12.60
2019-01-18T07:00:30.656Z,12.30
2019-01-18T07:03:00.130Z,12.23
2019-01-18T07:05:29.596Z,12.17
2019-01-18T07:07:59.057Z,13.00
2019-01-18T07:10:28.896Z,11.87
2019-01-18T07:12:58.303Z,11.80
2019-01-18T07:15:27.854Z,12.60
2019-01-18T07:17:57.311Z,12.80
2019-01-18T07:20:26.740Z,30.53
2019-01-18T07:22:56.292Z,82.57
2019-01-18T07:25:27.959Z,79.27
2019-01-18T07:27:57.442Z,105.13
2019-01-18T07:30:29.433Z,102.87
2019-01-18T07:32:58.874Z,45.43
2019-01-18T07:35:28.351Z,51.97
2019-01-18T07:37:57.790Z,42.70
2019-01-18T07:40:27.249Z,32.13
2019-01-18T07:42:56.785Z,26.57
2019-01-18T07:45:27.882Z,25.80
2019-01-18T07:47:57.326Z,22.83
2019-01-18T07:50:26.858Z,24.17
2019-01-18T07:52:56.380Z,22.30
2019-01-18T07:55:25.751Z,23.07
2019-01-18T07:57:55.251Z,24.27
2019-01-18T08:00:26.520Z,22.77
2019-01-18T08:02:55.916Z,22.80
2019-01-18T08:05:27.863Z,21.67
2019-01-18T08:07:57.247Z,21.60
2019-01-18T08:10:26.766Z,25.97
2019-01-18T08:12:56.255Z,36.40
2019-01-18T08:15:27.437Z,65.47
2019-01-18T08:17:57.150Z,81.00
2019-01-18T08:20:28.183Z,96.63
2019-01-18T08:22:58.060Z,115.40
2019-01-18T08:25:27.577Z,89.03
2019-01-18T08:27:57.649Z,98.10
2019-01-18T08:30:28.901Z,110.27
2019-01-18T08:32:58.295Z,236.50
2019-01-18T08:35:28.443Z,120.80
2019-01-18T08:37:57.851Z,130.53
2019-01-18T08:40:39.149Z,128.53
2019-01-18T08:43:10.765Z,90.70
2019-01-18T08:45:42.939Z,89.70
2019-01-18T08:48:12.333Z,121.23
2019-01-18T08:50:42.058Z,85.73
2019-01-18T08:53:11.541Z,64.77
2019-01-18T08:55:40.964Z,62.87
2019-01-18T08:58:10.432Z,88.43
2019-01-18T09:00:39.907Z,70.37
2019-01-18T09:03:09.359Z,76.17
2019-01-18T09:05:38.787Z,65.17
2019-01-18T09:08:08.163Z,74.77
2019-01-18T09:10:38.041Z,51.83
2019-01-18T09:13:07.490Z,67.57
2019-01-18T09:15:36.857Z,57.87
2019-01-18T09:18:06.362Z,67.37
2019-01-18T09:20:35.832Z,78.20
2019-01-18T09:23:05.400Z,93.63
2019-01-18T09:25:34.901Z,61.07
2019-01-18T09:28:04.686Z,77.50
2019-01-18T09:30:34.760Z,96.93
2019-01-18T09:33:06.558Z,77.30
2019-01-18T09:35:36.843Z,73.33
2019-01-18T09:38:09.153Z,72.93
2019-01-18T09:40:38.549Z,91.07
2019-01-18T09:43:08.006Z,199.53
2019-01-18T09:45:37.474Z,74.73
2019-01-18T09:48:08.733Z,181.40
2019-01-18T09:50:38.052Z,67.17
2019-01-18T09:53:09.117Z,72.67
2019-01-18T09:55:38.482Z,107.27
2019-01-18T09:58:07.865Z,65.90
2019-01-18T10:00:39.053Z,77.93
2019-01-18T10:03:08.466Z,75.37
2019-01-18T10:05:37.895Z,69.70
2019-01-18T10:08:09.912Z,67.87
2019-01-18T10:10:39.642Z,82.73
2019-01-18T10:13:08.993Z,64.53
2019-01-18T10:15:43.597Z,72.13
2019-01-18T10:18:13.196Z,58.23
2019-01-18T10:20:42.542Z,55.27
2019-01-18T10:23:12.087Z,63.33
2019-01-18T10:25:41.540Z,62.27
2019-01-18T10:28:10.997Z,55.67
2019-01-18T10:30:40.374Z,69.37
2019-01-18T10:33:09.818Z,57.27
2019-01-18T10:35:39.180Z,50.33
2019-01-18T10:38:08.664Z,50.13
2019-01-18T10:40:38.175Z,48.97
2019-01-18T10:43:07.622Z,50.70
2019-01-18T10:45:37.084Z,49.47
2019-01-18T10:48:06.913Z,49.50
2019-01-18T10:50:36.330Z,71.57
2019-01-18T10:53:05.835Z,51.90
2019-01-18T10:55:35.394Z,50.00
2019-01-18T10:58:04.957Z,50.97
2019-01-18T11:00:36.430Z,50.50
2019-01-18T11:03:06.219Z,50.73
2019-01-18T11:05:35.764Z,51.33
2019-01-18T11:08:05.356Z,59.30
2019-01-18T11:10:34.843Z,54.97
2019-01-18T11:13:04.399Z,50.77
2019-01-18T11:15:35.997Z,51.53
2019-01-18T11:18:05.546Z,55.23
2019-01-18T11:20:51.115Z,52.67
2019-01-18T11:23:20.656Z,53.40
2019-01-18T11:25:50.085Z,48.63
2019-01-18T11:28:19.493Z,41.40
2019-01-18T11:30:48.855Z,65.20
2019-01-18T11:33:18.242Z,45.83
2019-01-18T11:35:47.738Z,44.00
2019-01-18T11:38:17.110Z,41.73
2019-01-18T11:40:46.562Z,40.13
2019-01-18T11:43:16.003Z,39.73
2019-01-18T11:45:45.372Z,40.07
2019-01-18T11:48:14.814Z,40.00
2019-01-18T11:50:44.315Z,40.17
2019-01-18T11:53:13.775Z,40.63
2019-01-18T11:55:43.127Z,41.70
2019-01-18T11:58:12.572Z,43.00
2019-01-18T12:00:42.028Z,43.50
2019-01-18T12:03:11.460Z,43.93
2019-01-18T12:05:40.967Z,44.23
2019-01-18T12:08:10.427Z,46.63
2019-01-18T12:10:39.747Z,45.33
2019-01-18T12:13:09.179Z,45.70
2019-01-18T12:15:38.604Z,46.10
2019-01-18T12:18:08.056Z,45.53
2019-01-18T12:20:37.869Z,47.03
2019-01-18T12:23:07.789Z,47.53
2019-01-18T12:25:37.237Z,42.87
2019-01-18T12:28:07.361Z,44.73
2019-01-18T12:30:37.393Z,46.70
2019-01-18T12:33:07.094Z,45.70
2019-01-18T12:35:36.526Z,46.63
2019-01-18T12:38:05.888Z,48.87
2019-01-18T12:40:35.257Z,47.30
2019-01-18T12:43:04.840Z,48.87
2019-01-18T12:45:34.289Z,47.00
2019-01-18T12:48:03.714Z,50.77
2019-01-18T12:50:38.007Z,46.73
2019-01-18T12:53:08.181Z,48.60
2019-01-18T12:55:37.758Z,51.50
2019-01-18T12:58:07.691Z,50.03
2019-01-18T13:00:37.279Z,53.97
2019-01-18T13:03:07.681Z,50.47
2019-01-18T13:05:45.503Z,48.17
2019-01-18T13:08:14.933Z,50.27
2019-01-18T13:10:44.311Z,48.93
2019-01-18T13:13:13.799Z,51.07
2019-01-18T13:16:19.347Z,49.47
2019-01-18T13:18:51.641Z,58.57
2019-01-18T13:21:20.982Z,51.13
2019-01-18T13:23:50.333Z,53.77
2019-01-18T13:26:19.731Z,53.83
2019-01-18T13:28:49.061Z,51.70
2019-01-18T13:31:18.424Z,53.50
2019-01-18T13:33:47.927Z,64.13
2019-01-18T13:36:17.379Z,152.23
2019-01-18T13:38:46.798Z,85.33
2019-01-18T13:41:16.198Z,207.70
2019-01-18T13:43:45.571Z,110.47
2019-01-18T13:46:15.000Z,88.47
2019-01-18T13:48:44.491Z,68.00
2019-01-18T13:51:13.847Z,56.93
2019-01-18T13:53:43.218Z,66.00
2019-01-18T13:56:12.727Z,66.90
2019-01-18T13:58:42.124Z,62.20
2019-01-18T14:01:11.573Z,71.03
2019-01-18T14:03:41.053Z,63.27
2019-01-18T14:06:10.435Z,64.13
2019-01-18T14:08:39.991Z,63.20
2019-01-18T14:11:15.121Z,61.40
2019-01-18T14:13:44.458Z,69.00
2019-01-18T14:16:13.833Z,67.00
2019-01-18T14:18:43.239Z,62.97
2019-01-18T14:21:13.035Z,62.20
2019-01-18T14:23:42.808Z,58.10
2019-01-18T14:26:12.219Z,67.67
2019-01-18T14:28:42.172Z,57.20
2019-01-18T14:31:11.584Z,55.27
2019-01-18T14:33:44.114Z,59.60
2019-01-18T14:36:14.739Z,58.50
2019-01-18T14:38:44.394Z,52.97
2019-01-18T14:41:15.775Z,56.67
2019-01-18T14:43:44.968Z,72.40
2019-01-18T14:46:14.373Z,81.53
2019-01-18T14:48:43.807Z,61.80
2019-01-18T14:51:13.257Z,59.43
2019-01-18T14:53:42.653Z,56.63
2019-01-18T14:56:12.081Z,54.97
2019-01-18T14:58:41.509Z,65.50
2019-01-18T15:01:10.882Z,67.20
2019-01-18T15:03:40.375Z,59.50
2019-01-18T15:06:09.922Z,59.23
2019-01-18T15:08:39.700Z,59.87
2019-01-18T15:11:09.175Z,50.97
2019-01-18T15:13:38.525Z,62.57
2019-01-18T15:16:07.945Z,67.53
2019-01-18T15:18:38.330Z,54.73
2019-01-18T15:21:07.783Z,52.93
2019-01-18T15:23:37.261Z,50.67
2019-01-18T15:26:06.721Z,50.90
2019-01-18T15:28:36.162Z,51.67
2019-01-18T15:31:05.571Z,50.67
2019-01-18T15:33:34.984Z,51.87
2019-01-18T15:36:05.093Z,53.67
2019-01-18T15:38:34.449Z,58.83
2019-01-18T15:41:03.874Z,64.40
2019-01-18T15:43:33.329Z,69.27
2019-01-18T15:46:02.759Z,58.03
2019-01-18T15:48:32.273Z,62.67
2019-01-18T15:51:01.641Z,56.67
2019-01-18T15:53:31.010Z,63.87
2019-01-18T15:56:00.407Z,57.70
2019-01-18T15:58:29.780Z,58.10
2019-01-18T16:00:59.237Z,58.03
2019-01-18T16:03:28.665Z,54.63
2019-01-18T16:05:58.026Z,57.77
2019-01-18T16:08:27.383Z,56.03
2019-01-18T16:10:57.766Z,58.37
2019-01-18T16:13:28.047Z,55.63
2019-01-18T16:16:10.630Z,55.73
2019-01-18T16:18:40.065Z,59.70
2019-01-18T16:21:09.532Z,59.83
2019-01-18T16:23:39.015Z,57.63
2019-01-18T16:26:08.406Z,56.90
2019-01-18T16:28:37.862Z,59.63
2019-01-18T16:31:07.250Z,59.93
2019-01-18T16:33:36.619Z,65.20
2019-01-18T16:36:06.150Z,67.03
2019-01-18T16:38:35.627Z,63.40
2019-01-18T16:41:04.972Z,64.77
2019-01-18T16:43:37.491Z,67.53
2019-01-18T16:46:07.005Z,65.83
2019-01-18T16:48:36.497Z,63.37
2019-01-18T16:51:05.947Z,59.83
2019-01-18T16:53:35.333Z,62.33
2019-01-18T16:56:04.681Z,60.00
2019-01-18T16:58:34.030Z,60.33
2019-01-18T17:01:05.503Z,63.40
2019-01-18T17:03:34.933Z,65.07
2019-01-18T17:06:04.557Z,64.33
2019-01-18T17:08:34.069Z,67.73
2019-01-18T17:11:03.533Z,70.33
2019-01-18T17:13:38.469Z,65.97
2019-01-18T17:16:08.314Z,70.97
2019-01-18T17:18:37.808Z,67.93
2019-01-18T17:21:07.294Z,67.60
2019-01-18T17:23:36.642Z,69.80
2019-01-18T17:26:07.801Z,67.60
2019-01-18T17:28:37.198Z,67.00
2019-01-18T17:31:06.633Z,62.07
2019-01-18T17:33:37.074Z,63.93
2019-01-18T17:36:47.025Z,70.07
2019-01-18T17:39:53.451Z,63.73
2019-01-18T17:43:03.135Z,63.80
2019-01-18T17:46:07.978Z,60.40
2019-01-18T17:49:45.733Z,62.17
2019-01-18T17:53:08.401Z,64.43
2019-01-18T17:56:21.922Z,66.37
2019-01-18T17:59:32.527Z,66.80
2019-01-18T18:02:46.125Z,68.93
2019-01-18T18:05:44.789Z,69.63
2019-01-18T18:08:42.858Z,72.17
2019-01-18T18:11:41.755Z,66.10
2019-01-18T18:14:48.719Z,68.90
2019-01-18T18:17:58.808Z,69.10
2019-01-18T18:20:54.981Z,74.67
2019-01-18T18:24:26.700Z,74.13
2019-01-18T18:27:42.929Z,75.93
2019-01-18T18:30:25.994Z,86.60
2019-01-18T18:33:57.684Z,70.33
2019-01-18T18:37:01.686Z,70.17
2019-01-18T18:39:48.560Z,60.53
2019-01-18T18:42:49.222Z,51.07
2019-01-18T18:46:03.425Z,54.30
2019-01-18T18:49:00.927Z,54.37
2019-01-18T18:52:01.812Z,55.63
2019-01-18T18:55:07.938Z,61.07
2019-01-18T18:58:15.176Z,47.70
2019-01-18T19:01:20.209Z,38.63
2019-01-18T19:04:27.715Z,39.17
2019-01-18T19:07:56.398Z,34.47
2019-01-18T19:11:24.171Z,30.20
2019-01-18T19:14:52.400Z,26.33
2019-01-18T19:17:57.043Z,21.33
2019-01-18T19:21:13.877Z,17.60
2019-01-18T19:24:36.811Z,14.93
2019-01-18T19:27:45.264Z,11.67
2019-01-18T19:31:08.799Z,10.37
2019-01-18T19:33:52.672Z,9.40
2019-01-18T19:36:46.125Z,8.67
2019-01-18T19:39:43.353Z,8.83
2019-01-18T19:42:56.768Z,8.13
2019-01-18T19:46:11.050Z,7.83
2019-01-18T19:49:18.252Z,7.00
2019-01-18T19:51:59.239Z,6.73
2019-01-18T19:54:48.501Z,6.57
2019-01-18T19:57:40.694Z,6.90
2019-01-18T20:00:34.310Z,7.00
2019-01-18T20:03:53.552Z,9.13
2019-01-18T20:07:06.240Z,23.73
2019-01-18T20:10:07.862Z,16.07
2019-01-18T20:13:14.527Z,11.10
2019-01-18T20:16:15.468Z,9.57
2019-01-18T20:19:31.817Z,6.07
2019-01-18T20:22:37.312Z,6.13
2019-01-18T20:25:48.337Z,11.07
2019-01-18T20:29:16.821Z,7.07
2019-01-18T20:32:08.137Z,5.57
2019-01-18T20:35:26.792Z,8.10
2019-01-18T20:38:19.716Z,5.37
2019-01-18T20:41:39.526Z,7.53
2019-01-18T20:44:58.159Z,5.77
2019-01-18T20:47:39.588Z,5.00
2019-01-18T20:50:44.654Z,5.20
2019-01-18T20:53:34.330Z,5.20
2019-01-18T20:56:46.790Z,5.53
2019-01-18T20:59:37.330Z,5.73
2019-01-18T21:02:41.852Z,5.70
2019-01-18T21:05:39.831Z,8.73
2019-01-18T21:09:06.989Z,7.77
2019-01-18T21:12:07.382Z,6.30
2019-01-18T21:15:11.269Z,6.33
2019-01-18T21:18:05.421Z,10.00
2019-01-18T21:21:19.185Z,22.97
2019-01-18T21:24:31.332Z,18.73
2019-01-18T21:27:19.858Z,17.07
2019-01-18T21:30:07.625Z,13.07
2019-01-18T21:33:04.670Z,21.57
2019-01-18T21:36:18.216Z,11.20
2019-01-18T21:39:30.379Z,7.00
2019-01-18T21:42:19.507Z,7.00
2019-01-18T21:45:30.409Z,9.13
2019-01-18T21:48:24.458Z,9.37
2019-01-18T21:51:25.529Z,10.80
2019-01-18T21:54:24.239Z,13.87
2019-01-18T21:57:36.161Z,8.43
2019-01-18T22:00:22.209Z,8.20
2019-01-18T22:03:41.517Z,7.20
2019-01-18T22:06:45.159Z,10.27
2019-01-18T22:10:04.640Z,10.57
2019-01-18T22:13:19.609Z,20.10
2019-01-18T22:16:48.280Z,21.53
2019-01-18T22:20:08.088Z,9.10
2019-01-18T22:23:05.865Z,8.53
2019-01-18T22:26:28.431Z,8.40
2019-01-18T22:29:14.642Z,9.43
2019-01-18T22:32:38.095Z,10.03
2019-01-18T22:35:43.415Z,17.80
2019-01-18T22:39:02.993Z,13.30
2019-01-18T22:42:15.270Z,22.47
2019-01-18T22:45:03.134Z,8.90
2019-01-18T22:48:04.021Z,7.33
2019-01-18T22:51:19.345Z,8.00
2019-01-18T22:54:33.211Z,7.57
2019-01-18T22:57:31.688Z,7.80
2019-01-18T23:01:13.292Z,9.23
2019-01-18T23:04:08.426Z,7.87
2019-01-18T23:07:19.193Z,7.60
2019-01-18T23:10:30.467Z,6.87
2019-01-18T23:13:32.638Z,8.07
2019-01-18T23:16:25.439Z,8.50
2019-01-18T23:19:21.415Z,7.43
2019-01-18T23:22:40.937Z,8.90
2019-01-18T23:25:39.383Z,8.00
2019-01-18T23:28:43.355Z,9.20
2019-01-18T23:31:22.863Z,9.47
2019-01-18T23:34:14.792Z,9.07
2019-01-18T23:37:20.912Z,8.10
2019-01-18T23:40:32.025Z,9.73
2019-01-18T23:43:32.026Z,11.13
2019-01-18T23:46:58.028Z,9.10
2019-01-18T23:50:23.557Z,9.57
2019-01-18T23:53:12.437Z,9.43
2019-01-18T23:56:10.018Z,8.60
2019-01-18T23:59:02.699Z,8.83
